Time;durP1;ratioP1;P1;durP2;ratioP2;P2;SDS_P1;SDS_P2;PMS_P1;PMS_P2;Temp;Humidity;BMP_temperature;BMP_pressure;BME280_temperature;BME280_humidity;BME280_pressure;Samples;Min_cycle;Max_cycle;Signal;HPM_P1;HPM_P2
2021/09/17 00:00:11;;;;;;;8.48;6.85;;;;;;;17.94;81.52;99391.25;5117400;28;20464;-53
2021/09/17 00:03:00;;;;;;;7.50;5.85;;;;;;;17.92;81.68;99390.47;5117245;28;20047;-53
2021/09/17 00:05:26;;;;;;;11.38;5.80;;;;;;;17.93;81.75;99385.06;5117568;28;20058;-53
2021/09/17 00:07:52;;;;;;;8.30;6.55;;;;;;;17.93;82.01;99392.16;5117285;28;20047;-53
2021/09/17 00:10:17;;;;;;;8.73;6.07;;;;;;;17.90;82.19;99393.19;5117381;28;20047;-53
2021/09/17 00:12:43;;;;;;;8.18;5.70;;;;;;;17.88;82.05;99387.16;5117057;28;20048;-53
2021/09/17 00:15:10;;;;;;;6.78;5.30;;;;;;;17.90;82.00;99387.06;5117446;28;20047;-54
2021/09/17 00:17:36;;;;;;;6.80;5.35;;;;;;;17.92;81.79;99383.38;5116274;28;20127;-54
2021/09/17 00:20:03;;;;;;;7.05;5.28;;;;;;;17.91;81.77;99380.84;5117368;28;20047;-54
2021/09/17 00:22:29;;;;;;;8.70;5.05;;;;;;;17.90;81.82;99369.34;5116364;28;20044;-54
2021/09/17 00:24:55;;;;;;;6.38;5.03;;;;;;;17.91;81.77;99375.53;5116922;28;20448;-54
2021/09/17 00:27:20;;;;;;;7.55;4.68;;;;;;;17.78;81.90;99356.03;5082640;28;20176;-53
2021/09/17 00:29:46;;;;;;;8.85;5.72;;;;;;;17.87;81.70;99363.41;5116905;28;20051;-53
2021/09/17 00:32:12;;;;;;;6.88;4.80;;;;;;;17.87;81.86;99358.09;5117160;28;20039;-53
2021/09/17 00:34:38;;;;;;;4.88;4.40;;;;;;;17.87;81.77;99364.25;5116891;28;20055;-53
2021/09/17 00:37:04;;;;;;;7.90;5.30;;;;;;;17.87;81.72;99366.06;5117085;28;20047;-54
2021/09/17 00:39:29;;;;;;;8.65;5.47;;;;;;;17.84;81.94;99350.34;5115871;28;20146;-54
2021/09/17 00:41:57;;;;;;;6.40;5.18;;;;;;;17.85;81.73;99363.50;5116923;28;20044;-54
2021/09/17 00:44:23;;;;;;;7.40;5.38;;;;;;;17.84;81.65;99360.94;5116949;28;20061;-54
2021/09/17 00:46:50;;;;;;;5.53;4.90;;;;;;;17.83;81.87;99364.53;5116946;28;20047;-54
2021/09/17 00:49:16;;;;;;;7.72;4.97;;;;;;;17.83;81.87;99364.53;5116920;28;20059;-54
2021/09/17 00:51:41;;;;;;;8.23;5.65;;;;;;;17.80;82.06;99362.94;5115779;28;20415;-54
2021/09/17 00:54:07;;;;;;;6.38;5.65;;;;;;;17.80;82.49;99362.09;5116863;28;20043;-54
2021/09/17 00:56:33;;;;;;;5.65;5.03;;;;;;;17.78;82.42;99359.56;5116822;28;20066;-54
2021/09/17 00:58:59;;;;;;;5.50;5.00;;;;;;;17.74;82.44;99358.84;5116571;28;20348;-54
2021/09/17 01:01:25;;;;;;;5.68;4.93;;;;;;;17.75;82.71;99365.00;5116684;28;20349;-54
2021/09/17 01:03:51;;;;;;;10.70;5.55;;;;;;;17.74;82.39;99360.63;5099017;28;20048;-54
2021/09/17 01:06:17;;;;;;;6.55;5.68;;;;;;;17.71;82.39;99361.69;5116761;28;20051;-53
2021/09/17 01:08:42;;;;;;;8.98;5.78;;;;;;;17.64;82.41;99351.56;5116453;28;20437;-53
2021/09/17 01:11:08;;;;;;;7.63;5.20;;;;;;;17.69;82.41;99360.06;5115845;28;20054;-53
2021/09/17 01:13:34;;;;;;;7.43;5.05;;;;;;;17.69;82.47;99354.78;5116200;28;20346;-54
2021/09/17 01:16:00;;;;;;;8.02;4.72;;;;;;;17.67;82.28;99357.50;5115780;28;20063;-54
2021/09/17 01:18:27;;;;;;;5.57;4.90;;;;;;;17.62;82.39;99346.38;5115481;28;20047;-54
2021/09/17 01:21:02;;;;;;;5.05;4.55;;;;;;;17.66;82.15;99347.88;5116603;28;20086;-54
2021/09/17 01:23:28;;;;;;;6.45;4.40;;;;;;;17.65;82.39;99337.38;5117556;28;20464;-54
2021/09/17 01:25:53;;;;;;;4.80;4.28;;;;;;;17.62;82.18;99333.13;5120694;28;20071;-53
2021/09/17 01:28:29;;;;;;;5.95;4.75;;;;;;;17.65;81.91;99332.94;5120449;28;20069;-55
2021/09/17 01:30:55;;;;;;;9.80;5.40;;;;;;;17.61;82.08;99333.19;5120973;28;20406;-54
2021/09/17 01:33:21;;;;;;;12.38;6.57;;;;;;;17.59;82.11;99338.59;5120878;28;20047;-53
2021/09/17 01:35:58;;;;;;;15.65;6.68;;;;;;;17.62;81.97;99334.94;5120600;28;20043;-54
2021/09/17 01:38:25;;;;;;;9.93;5.45;;;;;;;17.57;82.14;99329.91;5120554;28;20361;-53
2021/09/17 01:40:50;;;;;;;4.88;4.38;;;;;;;17.56;82.39;99333.50;5120414;28;20039;-53
2021/09/17 01:43:16;;;;;;;5.90;4.57;;;;;;;17.54;82.39;99324.78;5120319;28;20043;-53
2021/09/17 01:45:42;;;;;;;6.97;4.03;;;;;;;17.54;82.28;99322.13;5119463;28;20409;-53
2021/09/17 01:48:08;;;;;;;5.43;4.03;;;;;;;17.53;82.21;99323.09;5120288;28;20051;-54
2021/09/17 01:50:33;;;;;;;5.10;4.60;;;;;;;17.52;82.26;99318.75;5119935;28;20054;-54
2021/09/17 01:52:59;;;;;;;5.93;4.75;;;;;;;17.50;82.20;99313.53;5119891;28;20051;-53
2021/09/17 01:55:25;;;;;;;8.30;3.97;;;;;;;17.46;82.04;99319.97;5120166;28;20047;-54
2021/09/17 01:57:51;;;;;;;6.20;4.60;;;;;;;17.46;82.18;99316.47;5118929;28;20464;-54
2021/09/17 02:00:17;;;;;;;5.90;4.05;;;;;;;17.45;82.20;99299.75;5118939;28;20047;-54
2021/09/17 02:02:43;;;;;;;4.78;3.72;;;;;;;17.42;82.28;99307.88;5119600;27;20059;-54
2021/09/17 02:05:09;;;;;;;6.28;4.07;;;;;;;17.43;82.11;99300.78;5119980;27;20059;-54
2021/09/17 02:07:35;;;;;;;5.32;3.90;;;;;;;17.43;82.10;99301.63;5118821;28;20043;-54
2021/09/17 02:10:00;;;;;;;6.22;4.20;;;;;;;17.40;81.97;99299.16;5101797;28;20040;-55
2021/09/17 02:12:26;;;;;;;5.40;4.45;;;;;;;17.33;81.98;99286.41;5119458;28;20058;-54
2021/09/17 02:14:53;;;;;;;6.32;4.07;;;;;;;17.39;82.20;99299.28;5085492;28;20360;-54
2021/09/17 02:17:21;;;;;;;8.43;4.55;;;;;;;17.36;82.26;99300.31;5101937;28;20051;-54
2021/09/17 02:19:47;;;;;;;6.93;4.60;;;;;;;17.34;82.41;99299.53;5119643;28;20066;-54
2021/09/17 02:22:13;;;;;;;5.28;3.75;;;;;;;17.34;82.25;99298.69;5102124;28;20040;-54
2021/09/17 02:24:39;;;;;;;10.45;4.85;;;;;;;17.33;82.07;99297.84;5119378;28;20036;-54
2021/09/17 02:27:05;;;;;;;5.03;3.90;;;;;;;17.32;82.10;99300.56;5118704;28;20112;-54
2021/09/17 02:29:31;;;;;;;6.05;4.97;;;;;;;17.25;82.41;99300.94;5119525;28;20052;-54
2021/09/17 02:31:57;;;;;;;9.07;5.05;;;;;;;17.25;82.53;99298.28;5118271;28;20143;-54
2021/09/17 02:34:23;;;;;;;9.05;4.82;;;;;;;17.22;82.38;99298.50;5118913;28;20130;-54
2021/09/17 02:36:49;;;;;;;6.72;4.82;;;;;;;17.20;82.49;99291.59;5118793;28;20043;-54
2021/09/17 02:39:15;;;;;;;7.25;5.15;;;;;;;17.17;82.23;99291.78;5119177;28;20116;-55
2021/09/17 02:41:42;;;;;;;7.07;5.38;;;;;;;17.08;82.28;99279.94;5101116;28;20429;-54
2021/09/17 02:44:08;;;;;;;5.10;4.50;;;;;;;17.11;82.30;99286.84;5101818;28;20043;-54
2021/09/17 02:46:33;;;;;;;6.72;4.15;;;;;;;17.07;82.27;99285.34;5118851;28;20058;-54
2021/09/17 02:48:59;;;;;;;7.35;4.43;;;;;;;17.02;82.50;99278.50;5118889;28;20036;-55
2021/09/17 02:51:25;;;;;;;8.80;4.55;;;;;;;17.00;82.29;99277.75;5119094;28;20067;-54
2021/09/17 02:53:51;;;;;;;4.85;4.10;;;;;;;16.96;82.35;99270.09;5118772;28;20326;-55
2021/09/17 02:56:17;;;;;;;5.38;4.38;;;;;;;16.92;82.30;99274.72;5118746;28;20044;-55
2021/09/17 02:58:43;;;;;;;8.73;5.45;;;;;;;16.91;82.20;99267.72;5119245;28;20039;-55
2021/09/17 03:01:08;;;;;;;5.35;3.63;;;;;;;16.89;81.89;99274.88;5118915;28;20059;-55
2021/09/17 03:03:34;;;;;;;6.95;4.35;;;;;;;16.85;82.17;99270.72;5118779;28;20133;-55
2021/09/17 03:06:00;;;;;;;6.53;4.47;;;;;;;16.85;82.07;99264.59;5117678;28;20516;-54
2021/09/17 03:08:26;;;;;;;7.72;5.97;;;;;;;16.82;82.04;99274.41;5117914;28;20124;-55
2021/09/17 03:10:57;;;;;;;9.68;5.78;;;;;;;16.80;82.14;99268.38;5118374;28;20108;-55
2021/09/17 03:13:24;;;;;;;9.32;5.28;;;;;;;16.78;82.05;99261.47;5118552;27;20047;-55
2021/09/17 03:15:50;;;;;;;5.97;4.78;;;;;;;16.77;82.35;99265.91;5118589;28;20048;-55
2021/09/17 03:18:16;;;;;;;5.07;4.30;;;;;;;16.74;82.42;99273.16;5118474;28;20114;-55
2021/09/17 03:20:42;;;;;;;5.65;4.00;;;;;;;16.72;82.51;99273.22;5118500;28;20104;-54
2021/09/17 03:23:08;;;;;;;8.30;4.90;;;;;;;16.72;82.38;99267.09;5118311;28;20090;-55
2021/09/17 03:25:34;;;;;;;5.97;5.35;;;;;;;16.71;82.47;99265.38;5118171;28;20040;-54
2021/09/17 03:28:00;;;;;;;7.85;4.63;;;;;;;16.68;82.12;99257.63;5118354;28;20062;-55
2021/09/17 03:30:25;;;;;;;4.63;3.88;;;;;;;16.38;82.28;99221.47;5118026;28;20058;-56
2021/09/17 03:32:51;;;;;;;7.40;4.45;;;;;;;16.56;82.26;99254.75;5117063;28;20096;-56
2021/09/17 03:35:17;;;;;;;7.38;4.10;;;;;;;16.55;82.31;99254.84;5118206;28;20051;-56
2021/09/17 03:37:43;;;;;;;6.82;4.85;;;;;;;16.48;82.20;99254.38;5117845;28;20108;-56
2021/09/17 03:40:09;;;;;;;6.10;4.50;;;;;;;16.43;82.29;99259.06;5118126;28;20058;-56
2021/09/17 03:42:35;;;;;;;6.10;4.22;;;;;;;16.37;82.25;99254.13;5117654;28;20498;-55
2021/09/17 03:45:01;;;;;;;5.93;4.00;;;;;;;16.31;82.33;99252.69;5117591;28;20051;-55
2021/09/17 03:47:27;;;;;;;5.35;4.40;;;;;;;16.25;82.05;99257.44;5117273;28;20055;-55
2021/09/17 03:49:53;;;;;;;6.68;4.22;;;;;;;16.21;81.89;99258.56;5117664;28;20067;-56
2021/09/17 03:52:18;;;;;;;5.13;4.47;;;;;;;16.13;81.99;99261.66;5118671;28;20063;-55
2021/09/17 03:54:44;;;;;;;4.43;4.00;;;;;;;16.04;82.06;99254.25;5117593;28;20052;-55
2021/09/17 03:57:10;;;;;;;7.75;4.60;;;;;;;15.99;81.91;99259.81;5117771;28;20186;-55
2021/09/17 03:59:36;;;;;;;6.57;4.13;;;;;;;15.94;81.83;99258.34;5117745;28;20047;-55
2021/09/17 04:02:02;;;;;;;7.28;4.32;;;;;;;15.82;81.80;99252.78;5117595;28;20067;-55
2021/09/17 04:04:28;;;;;;;4.10;3.78;;;;;;;15.73;81.83;99255.97;5117637;28;20055;-56
2021/09/17 04:06:54;;;;;;;5.32;4.07;;;;;;;15.68;81.93;99254.50;5117335;28;20140;-56
2021/09/17 04:09:19;;;;;;;4.78;4.22;;;;;;;15.60;82.16;99252.25;5117871;28;20454;-55
2021/09/17 04:11:45;;;;;;;6.20;4.32;;;;;;;15.54;82.32;99248.16;5117294;28;20352;-55
2021/09/17 04:14:11;;;;;;;6.32;4.55;;;;;;;15.48;82.51;99253.75;5117479;28;20048;-56
2021/09/17 04:16:37;;;;;;;7.10;4.22;;;;;;;15.44;82.20;99252.22;5117116;28;20051;-56
2021/09/17 04:19:03;;;;;;;7.30;4.38;;;;;;;15.40;82.18;99254.19;5117407;28;20117;-55
2021/09/17 04:21:29;;;;;;;4.65;3.97;;;;;;;15.35;82.32;99258.00;5117274;28;20420;-56
2021/09/17 04:23:55;;;;;;;6.65;4.30;;;;;;;15.30;82.20;99242.41;5116993;28;20047;-56
2021/09/17 04:26:22;;;;;;;7.95;4.68;;;;;;;15.27;82.13;99249.63;5116296;28;20110;-56
2021/09/17 04:28:49;;;;;;;4.78;4.32;;;;;;;15.23;81.86;99258.63;5115941;28;20062;-55
2021/09/17 04:31:15;;;;;;;7.75;5.15;;;;;;;15.16;81.77;99252.84;5115945;28;20035;-55
2021/09/17 04:33:41;;;;;;;6.78;4.65;;;;;;;15.09;82.20;99254.94;5115702;28;20104;-55
2021/09/17 04:36:07;;;;;;;6.40;4.72;;;;;;;15.06;82.40;99248.97;5115266;28;20051;-55
2021/09/17 04:38:32;;;;;;;5.07;4.35;;;;;;;15.02;82.52;99250.94;5114826;28;20052;-55
2021/09/17 04:40:58;;;;;;;6.50;5.07;;;;;;;14.92;82.51;99250.56;5115100;28;20058;-55
2021/09/17 04:43:24;;;;;;;6.40;4.60;;;;;;;14.93;82.76;99260.16;5114019;28;20066;-56
2021/09/17 04:45:50;;;;;;;5.43;4.47;;;;;;;14.91;82.94;99262.00;5115004;28;20441;-55
2021/09/17 04:48:16;;;;;;;4.97;4.28;;;;;;;14.89;82.86;99250.72;5114713;28;20053;-56
2021/09/17 04:50:42;;;;;;;6.90;5.38;;;;;;;14.84;83.00;99262.41;5114724;28;20047;-56
2021/09/17 04:53:08;;;;;;;5.07;4.50;;;;;;;14.83;82.90;99256.28;5114870;28;20071;-55
2021/09/17 04:55:34;;;;;;;5.45;4.95;;;;;;;14.81;82.93;99254.66;5114888;28;20048;-55
2021/09/17 04:58:04;;;;;;;10.00;6.00;;;;;;;14.77;82.92;99251.31;5113831;28;20540;-55
2021/09/17 05:00:30;;;;;;;6.88;5.00;;;;;;;14.76;82.84;99248.78;5115178;28;20060;-55
2021/09/17 05:02:56;;;;;;;5.30;4.80;;;;;;;14.76;82.96;99246.16;5116425;28;20092;-55
2021/09/17 05:05:22;;;;;;;7.68;4.20;;;;;;;14.71;83.11;99255.13;5116734;28;20426;-55
2021/09/17 05:07:47;;;;;;;7.97;5.10;;;;;;;14.59;83.72;99242.59;5116705;28;20170;-55
2021/09/17 05:10:13;;;;;;;6.80;4.70;;;;;;;14.67;83.55;99247.47;5116426;28;20051;-55
2021/09/17 05:12:39;;;;;;;6.90;4.95;;;;;;;14.68;83.47;99246.53;5116250;28;20066;-55
2021/09/17 05:15:05;;;;;;;5.20;4.25;;;;;;;14.69;83.60;99248.25;5116655;28;20051;-55
2021/09/17 05:17:31;;;;;;;6.53;4.88;;;;;;;14.69;83.71;99243.81;5116312;28;20457;-55
2021/09/17 05:19:57;;;;;;;4.72;4.10;;;;;;;14.74;83.85;99243.56;5116597;28;20052;-55
2021/09/17 05:22:25;;;;;;;6.45;5.13;;;;;;;14.83;84.07;99256.28;5116524;28;20055;-55
2021/09/17 05:24:52;;;;;;;7.78;4.78;;;;;;;14.92;83.94;99254.97;5116537;28;20036;-55
2021/09/17 05:27:17;;;;;;;6.68;4.97;;;;;;;15.02;84.12;99260.63;5116548;28;20039;-55
2021/09/17 05:29:43;;;;;;;8.25;4.97;;;;;;;15.25;84.63;99256.78;5116495;28;20048;-55
2021/09/17 05:32:09;;;;;;;8.85;4.47;;;;;;;15.63;84.57;99263.50;5115601;28;20055;-55
2021/09/17 05:34:35;;;;;;;7.65;4.90;;;;;;;15.89;83.87;99259.47;5116216;28;20086;-56
2021/09/17 05:37:01;;;;;;;8.02;4.47;;;;;;;16.01;83.45;99257.91;5116439;28;20040;-56
2021/09/17 05:39:27;;;;;;;8.63;4.38;;;;;;;16.06;82.71;99261.16;5115603;28;20104;-55
2021/09/17 05:41:52;;;;;;;6.72;5.07;;;;;;;16.07;82.80;99264.63;5116306;28;20043;-55
2021/09/17 05:44:18;;;;;;;17.88;5.28;;;;;;;16.07;82.54;99267.28;5116393;28;20330;-55
2021/09/17 05:46:45;;;;;;;8.07;4.95;;;;;;;16.03;82.37;99250.75;5116346;28;20429;-56
2021/09/17 05:49:10;;;;;;;6.03;4.53;;;;;;;16.09;82.63;99254.84;5116324;28;20055;-56
2021/09/17 05:51:36;;;;;;;7.63;4.43;;;;;;;16.14;82.65;99255.44;5115988;28;20441;-56
2021/09/17 05:54:02;;;;;;;8.65;5.00;;;;;;;16.16;82.51;99255.34;5116138;28;20105;-56
2021/09/17 05:56:28;;;;;;;9.02;4.65;;;;;;;16.18;82.59;99264.88;5115348;28;20055;-56
2021/09/17 05:58:54;;;;;;;6.68;4.63;;;;;;;16.23;82.61;99257.56;5115959;28;20058;-56
2021/09/17 08:09:11;;;;;;;6.03;4.63;;;;;;;18.56;75.73;99258.28;5134368;27;20397;-58
2021/09/17 08:11:38;;;;;;;5.68;4.43;;;;;;;18.53;76.47;99258.47;5132859;28;20043;-57
2021/09/17 08:14:04;;;;;;;7.75;5.57;;;;;;;18.41;75.12;99257.47;5133077;28;20217;-57
2021/09/17 08:16:30;;;;;;;5.93;4.70;;;;;;;18.39;76.11;99254.94;5133558;27;20062;-57
2021/09/17 08:18:56;;;;;;;4.93;4.22;;;;;;;18.38;76.28;99257.69;5133855;27;20047;-57
2021/09/17 08:21:21;;;;;;;6.03;4.47;;;;;;;18.40;76.41;99258.44;5133532;27;20452;-57
2021/09/17 08:23:47;;;;;;;4.55;4.13;;;;;;;18.44;75.80;99257.28;5133813;28;20108;-57
2021/09/17 08:26:13;;;;;;;5.10;4.38;;;;;;;18.45;75.71;99265.13;5133583;27;20326;-57
2021/09/17 08:28:39;;;;;;;6.18;3.83;;;;;;;18.49;75.52;99265.78;5133731;27;20108;-57
2021/09/17 08:31:05;;;;;;;5.78;3.55;;;;;;;18.49;75.76;99265.78;5133652;27;20128;-57
2021/09/17 08:33:32;;;;;;;4.18;3.80;;;;;;;18.44;75.41;99263.44;5133266;27;20043;-57
2021/09/17 08:35:59;;;;;;;4.10;3.70;;;;;;;18.45;75.16;99264.28;5132607;28;20047;-57
2021/09/17 08:38:26;;;;;;;6.05;4.85;;;;;;;18.38;74.62;99260.34;5133938;27;20043;-57
2021/09/17 08:40:53;;;;;;;5.82;4.55;;;;;;;18.33;75.18;99265.06;5133787;28;20047;-57
2021/09/17 08:43:21;;;;;;;5.82;4.15;;;;;;;18.33;75.43;99259.78;5116301;28;20039;-57
2021/09/17 08:45:47;;;;;;;6.47;4.45;;;;;;;18.34;75.06;99266.78;5133477;27;20048;-57
2021/09/17 08:48:14;;;;;;;6.80;4.25;;;;;;;18.28;75.17;99259.25;5133412;27;20050;-57
2021/09/17 08:50:45;;;;;;;4.88;3.33;;;;;;;18.32;75.62;99264.22;5133406;27;20118;-57
2021/09/17 08:53:14;;;;;;;6.93;3.17;;;;;;;18.33;76.05;99259.78;5133552;27;20393;-57
2021/09/17 08:55:40;;;;;;;4.07;3.42;;;;;;;18.37;75.38;99262.13;5133689;27;20050;-57
2021/09/17 08:58:06;;;;;;;4.50;4.10;;;;;;;18.34;75.01;99264.13;5133344;27;20043;-57
2021/09/17 09:00:32;;;;;;;6.80;3.85;;;;;;;18.27;75.53;99262.84;5133064;27;20360;-57
2021/09/17 09:02:58;;;;;;;6.97;3.92;;;;;;;18.33;75.25;99268.59;5131823;28;20058;-57
2021/09/17 09:05:31;;;;;;;6.32;3.53;;;;;;;18.40;75.13;99277.84;5133183;27;20113;-57
2021/09/17 09:07:57;;;;;;;;;;;;;;;18.13;76.20;99275.16;5132284;27;20063;-56
2021/09/17 09:10:22;;;;;;;7.43;4.35;;;;;;;18.25;76.30;99270.03;5119178;28;20217;-57
2021/09/17 09:13:08;;;;;;;8.80;3.65;;;;;;;18.34;75.49;99269.44;5119206;28;20561;-57
2021/09/17 09:15:35;;;;;;;5.93;4.30;;;;;;;18.29;75.67;99274.19;5118920;28;20165;-56
2021/09/17 09:18:05;;;;;;;6.47;3.85;;;;;;;18.29;75.13;99272.38;5119106;28;20036;-57
2021/09/17 09:20:35;;;;;;;4.40;3.50;;;;;;;18.32;75.48;99273.97;5119414;28;20040;-56
2021/09/17 09:23:12;;;;;;;4.82;3.78;;;;;;;18.34;75.32;99275.59;5119192;28;20055;-54
2021/09/17 09:26:00;;;;;;;6.18;3.00;;;;;;;18.28;75.44;99268.03;5119080;28;20126;-55
2021/09/17 09:28:42;;;;;;;5.57;4.43;;;;;;;18.26;75.46;99277.03;5101101;28;20040;-56
2021/09/17 09:31:15;;;;;;;5.00;3.75;;;;;;;18.14;76.10;99266.28;5119098;28;20123;-56
2021/09/17 09:33:45;;;;;;;6.93;4.90;;;;;;;18.12;76.70;99272.63;5084735;28;20054;-56
2021/09/17 09:36:15;;;;;;;3.88;3.30;;;;;;;18.10;77.35;99275.41;5119122;28;20040;-56
2021/09/17 09:38:42;;;;;;;3.97;3.55;;;;;;;18.09;77.81;99268.38;5084736;28;20044;-56
2021/09/17 09:41:13;;;;;;;4.55;3.97;;;;;;;18.10;77.28;99275.41;5119083;28;20066;-57
2021/09/17 09:43:42;;;;;;;3.53;3.25;;;;;;;18.08;77.59;99271.97;5118877;28;20051;-57
2021/09/17 09:46:26;;;;;;;6.80;3.65;;;;;;;18.14;77.23;99263.63;5101165;28;20047;-56
2021/09/17 09:51:58;;;;;;;4.45;3.97;;;;;;;18.07;77.18;99257.03;5471552;23;20282;-82
2021/09/17 09:54:25;;;;;;;5.57;3.97;;;;;;;18.09;76.93;99259.56;5022924;28;20052;-80
2021/09/17 09:56:51;;;;;;;5.13;4.25;;;;;;;18.12;77.24;99260.22;4988143;28;20106;-78
2021/09/17 09:59:20;;;;;;;8.75;5.18;;;;;;;18.00;76.76;99239.81;5006921;28;20047;-81
2021/09/17 10:01:46;;;;;;;10.60;7.45;;;;;;;18.11;76.78;99258.53;5022220;28;20106;-73
2021/09/17 10:04:12;;;;;;;12.10;8.28;;;;;;;17.99;78.28;99264.63;4127911;28;10001649;-74
2021/09/17 10:06:38;;;;;;;9.18;6.57;;;;;;;18.01;78.13;99261.88;5003887;28;20038;-75
2021/09/17 10:09:05;;;;;;;7.10;5.38;;;;;;;18.04;78.34;99265.19;5003422;28;20041;-76
2021/09/17 10:11:31;;;;;;;9.48;5.43;;;;;;;18.10;78.02;99270.09;5001468;28;20124;-73
2021/09/17 10:14:00;;;;;;;8.35;5.35;;;;;;;18.18;78.02;99251.88;4985840;28;20431;-74
2021/09/17 10:16:26;;;;;;;7.55;6.20;;;;;;;18.36;77.23;99255.16;4986130;28;20053;-76
2021/09/17 10:18:52;;;;;;;11.13;5.93;;;;;;;18.50;77.02;99248.91;5002137;28;20489;-82
2021/09/17 10:21:49;;;;;;;9.07;4.70;;;;;;;18.60;74.81;99262.41;5017406;28;20041;-82
2021/09/17 10:24:27;;;;;;;5.88;4.65;;;;;;;18.62;75.10;99258.72;5001986;28;20045;-85
2021/09/17 10:27:18;;;;;;;7.63;4.97;;;;;;;18.65;75.43;99247.03;5018861;28;20401;-80
2021/09/17 10:29:46;;;;;;;6.53;4.10;;;;;;;18.79;75.95;99248.81;5005714;28;20037;-83
2021/09/17 10:32:27;;;;;;;9.10;5.45;;;;;;;18.94;75.09;99250.41;4987626;28;20042;-80
2021/09/17 10:35:11;;;;;;;10.32;5.75;;;;;;;19.02;74.90;99257.84;5003754;28;20107;-81
2021/09/17 10:38:05;;;;;;;17.17;13.02;;;;;;;19.13;74.39;99245.53;4988517;28;20371;-80
2021/09/17 10:40:54;;;;;;;10.43;7.88;;;;;;;19.26;73.46;99257.94;5016686;28;20449;-86
2021/09/17 10:43:26;;;;;;;7.68;5.90;;;;;;;19.38;73.29;99252.63;5019710;28;20431;-84
2021/09/17 10:45:53;;;;;;;7.97;4.57;;;;;;;19.44;72.18;99245.22;5019653;28;20042;-80
2021/09/17 10:48:24;;;;;;;6.95;4.95;;;;;;;19.41;71.41;99242.78;4986170;28;20135;-77
2021/09/17 10:51:10;;;;;;;6.65;4.28;;;;;;;19.61;71.28;99242.19;5002976;28;20058;-78
2021/09/17 10:53:39;;;;;;;3.92;3.30;;;;;;;19.71;70.64;99239.78;5017945;28;20115;-83
2021/09/17 10:56:23;;;;;;;5.82;3.10;;;;;;;19.73;70.07;99229.91;5035795;28;20045;-77
2021/09/17 10:59:25;;;;;;;4.00;2.70;;;;;;;19.73;69.51;99240.53;4989960;28;20045;-77
2021/09/17 11:01:55;;;;;;;5.18;2.65;;;;;;;19.76;69.61;99227.88;4941346;29;20122;-81
2021/09/17 11:04:29;;;;;;;3.55;1.80;;;;;;;19.87;69.08;99229.72;4990977;28;20065;-80
2021/09/17 11:07:16;;;;;;;4.15;2.20;;;;;;;19.99;68.40;99243.94;5003569;28;20049;-82
2021/09/17 11:09:46;;;;;;;6.43;2.70;;;;;;;19.94;67.33;99222.16;5036017;28;20056;-81
2021/09/17 11:12:19;;;;;;;2.72;2.40;;;;;;;19.99;67.40;99228.84;5020123;28;20045;-80
2021/09/17 11:15:08;;;;;;;4.38;2.80;;;;;;;20.01;66.69;99228.72;5003180;28;20057;-81
2021/09/17 11:17:42;;;;;;;3.38;2.33;;;;;;;20.04;67.37;99228.50;4986614;28;20041;-80
2021/09/17 11:20:14;;;;;;;2.70;1.67;;;;;;;20.06;67.33;99237.22;4987168;28;20037;-81
2021/09/17 11:22:47;;;;;;;3.38;1.50;;;;;;;20.06;67.62;99219.47;4987296;28;20143;-80
2021/09/17 11:25:13;;;;;;;2.78;1.50;;;;;;;20.10;66.56;99225.41;4987472;28;20049;-82
2021/09/17 11:27:43;;;;;;;3.50;1.52;;;;;;;20.12;65.25;99219.97;5002726;28;20470;-81
2021/09/17 11:30:09;;;;;;;5.88;1.67;;;;;;;20.20;65.89;99215.78;5019292;28;20084;-80
2021/09/17 11:32:35;;;;;;;2.53;1.63;;;;;;;20.17;66.03;99207.19;4986316;28;20053;-80
2021/09/17 11:35:08;;;;;;;2.25;1.42;;;;;;;20.27;65.21;99216.16;4986565;28;20041;-80
2021/09/17 11:37:34;;;;;;;3.15;1.23;;;;;;;20.23;65.08;99206.72;5018814;28;20110;-79
2021/09/17 11:40:05;;;;;;;1.77;1.35;;;;;;;20.31;65.79;99213.19;5018870;28;20435;-79
2021/09/17 11:42:31;;;;;;;3.45;1.40;;;;;;;20.36;64.84;99215.47;4986817;28;20046;-78
2021/09/17 11:44:56;;;;;;;1.33;1.00;;;;;;;20.34;64.70;99204.09;5002632;28;20118;-78
2021/09/17 11:47:31;;;;;;;1.55;1.33;;;;;;;20.38;64.91;99210.06;4987007;28;20072;-79
2021/09/17 11:50:03;;;;;;;3.13;1.30;;;;;;;20.38;64.43;99204.75;4986887;28;20120;-79
2021/09/17 11:52:28;;;;;;;1.73;1.30;;;;;;;20.37;64.87;99205.69;5018663;28;20057;-79
2021/09/17 11:54:56;;;;;;;4.22;1.48;;;;;;;20.36;63.69;99204.84;4986468;28;20065;-80
2021/09/17 11:57:27;;;;;;;2.25;1.40;;;;;;;20.43;64.30;99208.75;4987027;28;20045;-79
2021/09/17 11:59:53;;;;;;;2.60;1.00;;;;;;;20.42;65.36;99203.56;5003667;28;20103;-78
2021/09/17 12:02:20;;;;;;;2.00;1.40;;;;;;;20.40;65.18;99197.50;5036169;28;20390;-79
2021/09/17 12:04:51;;;;;;;1.50;1.00;;;;;;;20.38;64.84;99171.03;4986412;28;20107;-78
2021/09/17 12:07:17;;;;;;;4.82;0.90;;;;;;;20.45;64.80;99196.19;4986477;28;20359;-80
2021/09/17 12:09:43;;;;;;;2.80;1.17;;;;;;;20.42;64.20;99195.56;5002329;28;20038;-79
2021/09/17 12:12:09;;;;;;;3.05;1.27;;;;;;;20.44;64.19;99196.28;5002252;28;20485;-79
2021/09/17 12:14:36;;;;;;;1.52;1.00;;;;;;;20.40;64.27;99208.97;5002236;28;20423;-75
2021/09/17 12:17:08;;;;;;;3.92;1.20;;;;;;;20.33;63.63;99205.06;4985968;28;20045;-75
2021/09/17 12:20:03;;;;;;;4.30;1.35;;;;;;;20.25;62.67;99218.09;5002282;28;20120;-75
2021/09/17 12:22:36;;;;;;;2.35;1.63;;;;;;;20.08;62.99;99212.22;5035530;28;20442;-76
2021/09/17 12:25:07;;;;;;;2.08;1.13;;;;;;;20.02;64.23;99220.66;4970312;28;20057;-75
2021/09/17 12:27:34;;;;;;;3.10;1.40;;;;;;;19.85;64.92;99213.88;5002868;28;20049;-76
2021/09/17 12:30:03;;;;;;;1.90;1.00;;;;;;;19.79;65.51;99209.03;5001940;28;20073;-75
2021/09/17 12:32:29;;;;;;;4.35;1.92;;;;;;;19.75;67.05;99220.00;5018736;28;20044;-75
2021/09/17 12:35:14;;;;;;;4.00;2.13;;;;;;;19.65;67.45;99193.22;5001286;28;20045;-73
2021/09/17 12:37:53;;;;;;;4.47;2.05;;;;;;;19.61;68.24;99210.31;4984436;28;20049;-74
2021/09/17 12:40:21;;;;;;;1.55;1.30;;;;;;;19.58;68.96;99216.69;4984124;28;20420;-73
2021/09/17 12:43:06;;;;;;;2.50;1.42;;;;;;;19.56;69.54;99221.28;5000005;28;20046;-73
2021/09/17 12:45:32;;;;;;;2.97;1.35;;;;;;;19.58;70.56;99216.69;5019994;28;20053;-74
2021/09/17 12:47:59;;;;;;;2.50;1.58;;;;;;;19.61;70.29;99221.78;5019945;28;20134;-73
2021/09/17 12:50:43;;;;;;;3.90;1.63;;;;;;;19.68;69.59;99221.41;5003549;28;20037;-74
2021/09/17 12:53:11;;;;;;;3.25;1.77;;;;;;;19.64;70.18;99222.59;4988362;28;20034;-74
2021/09/17 12:55:37;;;;;;;3.90;1.40;;;;;;;19.58;69.93;99214.03;5003659;28;20120;-74
2021/09/17 12:58:06;;;;;;;6.57;4.68;;;;;;;19.59;69.95;99218.38;5003492;28;20110;-74
2021/09/17 13:00:42;;;;;;;5.93;4.90;;;;;;;19.50;70.14;99207.56;5020423;28;20045;-73
2021/09/17 13:03:09;;;;;;;5.72;5.18;;;;;;;19.45;69.44;99196.44;4989651;28;20045;-73
2021/09/17 13:05:36;;;;;;;6.13;4.63;;;;;;;19.49;69.82;99211.19;5005456;28;20037;-74
2021/09/17 13:08:03;;;;;;;4.10;2.80;;;;;;;19.37;69.52;99204.97;4989188;28;20081;-73
2021/09/17 13:10:29;;;;;;;4.82;2.90;;;;;;;19.32;70.17;99199.13;5021592;28;20091;-74
2021/09/17 13:12:56;;;;;;;35.53;26.20;;;;;;;19.43;69.39;99206.31;5005798;28;20064;-74
2021/09/17 13:15:22;;;;;;;53.08;33.63;;;;;;;19.37;69.80;99200.50;5005211;28;20459;-74
2021/09/17 13:17:48;;;;;;;26.75;15.75;;;;;;;19.35;69.10;99205.06;4988929;28;20048;-74
2021/09/17 13:20:15;;;;;;;20.75;12.35;;;;;;;19.30;69.45;99206.34;5005224;28;20037;-74
2021/09/17 13:22:40;;;;;;;24.02;13.73;;;;;;;19.23;69.66;99190.00;5005107;28;20114;-74
2021/09/17 13:25:07;;;;;;;28.77;15.23;;;;;;;19.27;69.14;99198.59;5038561;28;20447;-74
2021/09/17 13:27:33;;;;;;;15.48;9.63;;;;;;;19.29;68.77;99208.16;4988969;28;20458;-74
2021/09/17 13:29:59;;;;;;;6.70;4.32;;;;;;;19.26;67.59;99205.69;5021449;28;20049;-74
2021/09/17 13:32:25;;;;;;;7.28;5.50;;;;;;;19.33;67.79;99209.63;5004843;28;20041;-74
2021/09/17 13:34:52;;;;;;;9.35;5.70;;;;;;;19.34;66.76;99206.03;5021774;28;20060;-74
2021/09/17 13:37:18;;;;;;;13.13;6.22;;;;;;;19.34;66.84;99206.03;5021098;28;20103;-74
2021/09/17 13:39:44;;;;;;;2.83;1.58;;;;;;;19.22;67.36;99203.38;5021061;28;20038;-74
2021/09/17 13:42:10;;;;;;;8.32;4.72;;;;;;;19.25;67.32;99203.16;5021061;28;20053;-74
2021/09/17 13:44:37;;;;;;;3.65;2.17;;;;;;;19.28;66.82;99206.47;5004641;28;20071;-74
2021/09/17 13:47:05;;;;;;;2.83;1.60;;;;;;;19.19;66.25;99198.28;4989488;28;20045;-74